Time;durP1;ratioP1;P1;durP2;ratioP2;P2;SDS_P1;SDS_P2;PMS_P1;PMS_P2;Temp;Humidity;BMP_temperature;BMP_pressure;BME280_temperature;BME280_humidity;BME280_pressure;Samples;Min_cycle;Max_cycle;Signal;HPM_P1;HPM_P2
2021/08/28 00:02:13;;;;;;;;;4.50;3.00;;;;;23.73;41.04;101762.22;5084745;27;51369;-55
2021/08/28 00:04:38;;;;;;;;;3.25;3.00;;;;;23.73;41.05;101758.59;5089146;27;51210;-54
2021/08/28 00:07:04;;;;;;;;;3.75;2.00;;;;;23.71;41.22;101758.84;5089661;27;51572;-55
2021/08/28 00:09:29;;;;;;;;;4.00;4.00;;;;;23.70;40.98;101759.06;5092242;27;51739;-56
2021/08/28 00:11:55;;;;;;;;;3.75;3.75;;;;;23.68;41.44;101759.28;5084234;27;51317;-57
2021/08/28 00:14:20;;;;;;;;;3.75;3.00;;;;;23.68;41.01;101763.97;5090402;27;51007;-55
2021/08/28 00:16:46;;;;;;;;;4.25;2.00;;;;;23.67;41.17;101757.59;5091006;27;50994;-56
2021/08/28 00:19:11;;;;;;;;;4.25;3.50;;;;;23.67;41.16;101756.75;5091149;27;51762;-56
2021/08/28 00:21:36;;;;;;;;;5.00;2.00;;;;;23.65;41.35;101750.56;5088614;27;51226;-56
2021/08/28 00:24:03;;;;;;;;;4.75;3.00;;;;;23.64;41.46;101759.94;5093312;27;51203;-57
2021/08/28 00:26:29;;;;;;;;;2.50;1.25;;;;;23.61;41.62;101753.78;5092487;27;51378;-55
2021/08/28 00:28:55;;;;;;;;;2.25;2.00;;;;;23.62;41.17;101754.63;5093694;27;51183;-56
2021/08/28 00:31:20;;;;;;;;;2.25;2.25;;;;;23.60;41.50;101751.25;5091587;27;51150;-57
2021/08/28 00:33:45;;;;;;;;;2.25;1.25;;;;;23.59;41.48;101755.09;5090143;27;51129;-56
2021/08/28 00:36:11;;;;;;;;;3.25;2.00;;;;;23.59;41.51;101766.16;5092410;27;51122;-55
2021/08/28 00:38:36;;;;;;;;;2.75;2.75;;;;;23.59;41.43;101758.69;5091886;27;51067;-56
2021/08/28 00:41:01;;;;;;;;;3.00;2.25;;;;;23.59;41.88;101766.16;5092475;27;51104;-56
2021/08/28 00:43:28;;;;;;;;;4.50;2.50;;;;;23.57;41.24;101769.09;5087292;27;51306;-55
2021/08/28 00:45:53;;;;;;;;;6.75;4.50;;;;;23.55;41.45;101753.78;5085764;27;51240;-58
2021/08/28 00:48:18;;;;;;;;;3.00;3.00;;;;;23.56;42.00;101763.81;5083792;27;51847;-56
2021/08/28 00:50:44;;;;;;;;;3.75;1.25;;;;;23.54;41.76;101757.63;5089809;27;51084;-55
2021/08/28 00:53:13;;;;;;;;;2.25;2.00;;;;;23.54;41.98;101763.16;5082051;27;51107;-54
2021/08/28 00:55:40;;;;;;;;;4.00;3.00;;;;;23.52;41.92;101765.28;5084823;27;51279;-56
2021/08/28 00:58:05;;;;;;;;;2.25;2.00;;;;;23.52;41.98;101766.13;5092752;27;51171;-55
2021/08/28 01:00:37;;;;;;;;;5.00;3.00;;;;;23.51;41.62;101763.59;5092593;27;51134;-55
2021/08/28 01:03:06;;;;;;;;;4.00;4.00;;;;;23.51;41.64;101761.69;5091622;27;51165;-56
2021/08/28 01:05:43;;;;;;;;;7.75;4.00;;;;;23.50;41.61;101765.50;5092127;27;51191;-56
2021/08/28 01:08:29;;;;;;;;;5.75;4.00;;;;;23.48;42.18;101759.38;5088595;27;51141;-56
2021/08/28 01:11:25;;;;;;;;;4.50;3.25;;;;;23.49;42.07;101754.69;5088519;27;51117;-56
2021/08/28 01:13:57;;;;;;;;;4.00;3.00;;;;;23.48;41.91;101751.06;5095910;27;51174;-56
2021/08/28 01:16:26;;;;;;;;;3.75;3.50;;;;;23.48;41.77;101747.47;5092477;27;51678;-56
2021/08/28 01:18:55;;;;;;;;;5.50;3.75;;;;;23.47;42.11;101754.91;5091913;27;52086;-56
2021/08/28 01:21:29;;;;;;;;;5.00;4.00;;;;;23.46;42.31;101761.50;5095626;27;51314;-56
2021/08/28 01:23:59;;;;;;;;;4.00;3.00;;;;;23.45;42.24;101759.81;5097114;27;50996;-56
2021/08/28 01:26:30;;;;;;;;;3.00;3.00;;;;;23.44;42.10;101749.78;5083815;27;51167;-56
2021/08/28 01:29:07;;;;;;;;;6.00;3.75;;;;;23.43;41.89;101750.88;5086632;27;51077;-54
2021/08/28 01:31:33;;;;;;;;;3.00;2.50;;;;;23.42;42.26;101751.94;5093698;27;51119;-56
2021/08/28 01:34:00;;;;;;;;;2.50;2.50;;;;;23.42;42.02;101746.41;5097054;27;51003;-56
2021/08/28 01:36:26;;;;;;;;;1.75;1.75;;;;;23.41;42.20;101749.41;5097978;27;51393;-56
2021/08/28 01:38:52;;;;;;;;;6.25;2.50;;;;;23.41;42.35;101752.16;5085153;27;51955;-55
2021/08/28 01:41:19;;;;;;;;;2.00;1.75;;;;;23.40;42.31;101747.72;5096104;27;51551;-55
2021/08/28 01:43:46;;;;;;;;;4.00;3.00;;;;;23.40;42.19;101744.94;5081233;27;51028;-55
2021/08/28 01:46:12;;;;;;;;;3.50;2.00;;;;;23.38;41.98;101739.63;5091708;27;51132;-55
2021/08/28 01:48:38;;;;;;;;;3.75;2.75;;;;;23.38;42.25;101734.09;5077198;27;51059;-57
2021/08/28 01:51:04;;;;;;;;;4.50;3.00;;;;;23.38;42.51;101733.25;5087307;27;51084;-55
2021/08/28 01:53:29;;;;;;;;;5.50;3.00;;;;;23.37;42.02;101739.84;5087470;27;51868;-57
2021/08/28 01:55:55;;;;;;;;;3.75;3.75;;;;;23.36;41.96;101736.25;5096874;27;51031;-57
2021/08/28 01:58:20;;;;;;;;;4.00;3.00;;;;;23.35;42.19;101737.31;5096227;27;51949;-55
2021/08/28 02:00:46;;;;;;;;;2.00;2.00;;;;;23.35;42.29;101753.91;5095914;27;51134;-56
2021/08/28 02:03:11;;;;;;;;;2.75;2.00;;;;;23.32;41.93;101749.63;5096708;27;51615;-57
2021/08/28 02:05:43;;;;;;;;;1.75;1.75;;;;;23.32;42.19;101757.09;5096779;27;51046;-57
2021/08/28 02:08:16;;;;;;;;;2.75;2.75;;;;;23.31;42.17;101749.88;5096941;27;51106;-56
2021/08/28 02:10:51;;;;;;;;;3.25;2.00;;;;;23.30;42.22;101743.50;5084541;27;51143;-57
2021/08/28 02:13:33;;;;;;;;;4.00;1.50;;;;;23.29;42.29;101752.84;5077086;27;51329;-57
2021/08/28 02:16:05;;;;;;;;;3.00;2.00;;;;;23.29;42.49;101758.38;5083988;27;51339;-56
2021/08/28 02:18:38;;;;;;;;;6.00;3.00;;;;;23.28;42.69;101758.59;5091433;27;51202;-56
2021/08/28 02:21:05;;;;;;;;;5.00;4.25;;;;;23.27;42.50;101754.16;5088112;27;51068;-56
2021/08/28 02:23:42;;;;;;;;;4.00;4.00;;;;;23.26;42.68;101757.97;5079362;27;51187;-55
2021/08/28 02:26:11;;;;;;;;;2.25;2.00;;;;;23.26;42.73;101746.94;5093249;27;51081;-56
2021/08/28 02:29:04;;;;;;;;;3.25;2.00;;;;;23.26;42.75;101755.22;5077778;27;51093;-54
2021/08/28 02:31:33;;;;;;;;;2.75;2.75;;;;;23.25;42.23;101757.13;5083794;27;51096;-57
2021/08/28 02:34:01;;;;;;;;;3.00;1.00;;;;;23.24;42.84;101754.56;5096938;27;51009;-56
2021/08/28 02:36:28;;;;;;;;;3.75;3.00;;;;;23.24;42.84;101762.84;5085574;27;51001;-56
2021/08/28 02:38:54;;;;;;;;;2.25;2.25;;;;;23.23;42.34;101758.41;5093112;27;51102;-55
2021/08/28 02:41:21;;;;;;;;;3.75;2.00;;;;;23.21;42.53;101758.63;5082435;27;51518;-57
2021/08/28 02:43:47;;;;;;;;;5.00;2.00;;;;;23.22;42.21;101754.78;5089904;27;51027;-56
2021/08/28 02:46:15;;;;;;;;;2.25;2.25;;;;;23.21;42.88;101760.53;5092314;27;51374;-57
2021/08/28 02:48:41;;;;;;;;;1.50;1.00;;;;;23.21;42.43;101760.53;5094984;27;51799;-57
2021/08/28 02:51:10;;;;;;;;;2.50;2.00;;;;;23.21;43.07;101766.06;5096541;27;51310;-57
2021/08/28 02:53:39;;;;;;;;;3.75;2.00;;;;;23.20;42.40;101756.09;5085055;27;51345;-57
2021/08/28 02:56:06;;;;;;;;;1.00;1.00;;;;;23.19;42.70;101754.38;5081760;27;51029;-57
2021/08/28 02:58:31;;;;;;;;;3.00;1.25;;;;;23.18;42.94;101741.63;5094788;27;51166;-56
2021/08/28 03:00:58;;;;;;;;;4.00;2.00;;;;;23.17;42.90;101754.63;5092302;27;51103;-55
2021/08/28 03:03:23;;;;;;;;;3.50;2.00;;;;;23.17;42.49;101745.47;5090608;27;51091;-56
2021/08/28 03:05:52;;;;;;;;;1.25;0.50;;;;;23.16;42.76;101743.78;5091958;27;51091;-57
2021/08/28 03:08:18;;;;;;;;;2.00;2.00;;;;;23.14;42.97;101741.25;5085976;27;52075;-57
2021/08/28 03:10:46;;;;;;;;;3.50;2.75;;;;;23.14;42.59;101745.91;5086197;27;51473;-55
2021/08/28 03:13:12;;;;;;;;;3.00;1.75;;;;;23.13;42.77;101744.19;5080235;27;51011;-57
2021/08/28 03:15:37;;;;;;;;;4.00;2.00;;;;;23.13;42.76;101741.44;5085965;27;51257;-54
2021/08/28 03:18:07;;;;;;;;;3.25;2.00;;;;;23.13;42.98;101750.56;5096113;27;51492;-58
2021/08/28 03:20:34;;;;;;;;;2.50;0.50;;;;;23.13;43.17;101738.66;5083064;27;51412;-56
2021/08/28 03:23:00;;;;;;;;;4.00;2.75;;;;;23.11;43.18;101738.88;5093754;27;51022;-56
2021/08/28 03:25:26;;;;;;;;;2.00;1.25;;;;;23.10;42.91;101744.63;5095181;27;50984;-56
2021/08/28 03:27:53;;;;;;;;;2.50;1.00;;;;;23.10;42.91;101742.72;5078860;27;51845;-57
2021/08/28 03:30:20;;;;;;;;;4.25;2.00;;;;;23.08;43.16;101739.34;5088265;27;51165;-55
2021/08/28 03:32:47;;;;;;;;;3.00;2.00;;;;;23.07;42.81;101743.16;5094077;27;51279;-56
2021/08/28 03:35:13;;;;;;;;;2.50;0.75;;;;;23.07;43.11;101745.09;5094201;27;51172;-55
2021/08/28 03:37:39;;;;;;;;;2.75;1.75;;;;;23.08;42.97;101744.00;5096026;27;51134;-56
2021/08/28 03:40:09;;;;;;;;;2.00;2.00;;;;;23.05;42.81;101737.03;5076763;27;51525;-56
2021/08/28 03:42:37;;;;;;;;;4.00;2.00;;;;;23.04;42.86;101747.22;5095728;27;51094;-55
2021/08/28 03:45:04;;;;;;;;;2.75;2.00;;;;;23.04;43.43;101738.09;5088443;27;51203;-56
2021/08/28 03:47:35;;;;;;;;;2.00;2.00;;;;;23.04;43.19;101738.09;5095586;27;52180;-56
2021/08/28 03:50:01;;;;;;;;;1.75;1.25;;;;;23.03;42.90;101744.66;5096097;27;51388;-56
2021/08/28 03:52:26;;;;;;;;;2.00;1.00;;;;;23.03;43.06;101745.53;5095859;27;51159;-57
2021/08/28 03:54:51;;;;;;;;;3.75;1.75;;;;;23.02;42.82;101737.44;5094286;27;51139;-56
2021/08/28 03:57:16;;;;;;;;;4.00;3.00;;;;;23.01;43.33;101736.59;5092155;27;51934;-55
2021/08/28 03:59:42;;;;;;;;;2.25;2.25;;;;;23.01;43.58;101732.97;5077659;27;51078;-55
2021/08/28 04:02:07;;;;;;;;;4.00;2.50;;;;;23.01;43.22;101736.59;5085310;27;50995;-56
2021/08/28 04:04:32;;;;;;;;;2.00;1.00;;;;;23.00;43.55;101734.03;5075922;27;51049;-54
2021/08/28 04:06:58;;;;;;;;;3.25;3.00;;;;;22.99;43.16;101733.19;5089459;27;52125;-55
2021/08/28 04:09:23;;;;;;;;;2.00;1.75;;;;;23.00;43.23;101734.03;5093542;27;51271;-56
2021/08/28 04:11:48;;;;;;;;;1.25;1.25;;;;;22.99;42.96;101733.19;5095310;27;51152;-57
2021/08/28 04:14:14;;;;;;;;;1.00;1.00;;;;;22.99;43.47;101735.97;5082230;27;51265;-57
2021/08/28 04:16:39;;;;;;;;;2.00;2.00;;;;;22.98;43.17;101737.03;5057392;27;52895;-56
2021/08/28 04:19:04;;;;;;;;;4.00;2.75;;;;;22.98;43.60;101731.50;5089385;27;51226;-56
2021/08/28 04:21:29;;;;;;;;;2.25;1.50;;;;;22.98;43.34;101736.19;5095615;27;51261;-58
2021/08/28 04:23:55;;;;;;;;;2.50;1.25;;;;;22.97;43.52;101738.09;5094861;27;51313;-56
2021/08/28 04:26:20;;;;;;;;;2.75;1.75;;;;;22.97;42.89;101745.53;5089528;27;51854;-57
2021/08/28 04:28:45;;;;;;;;;1.75;1.75;;;;;22.97;43.61;101740.03;5083979;27;51099;-57
2021/08/28 04:31:11;;;;;;;;;2.00;2.00;;;;;22.96;43.04;101736.41;5093066;27;51086;-56
2021/08/28 04:33:36;;;;;;;;;1.50;1.50;;;;;22.96;43.30;101750.22;5095100;27;51141;-57
2021/08/28 04:36:02;;;;;;;;;3.50;2.00;;;;;22.95;43.28;101743.00;5095032;27;51085;-57
2021/08/28 04:38:27;;;;;;;;;0.75;0.00;;;;;22.94;43.41;101744.06;5093634;27;51149;-57
2021/08/28 04:40:53;;;;;;;;;2.00;1.50;;;;;22.94;43.48;101749.59;5083673;27;51045;-57
2021/08/28 04:43:19;;;;;;;;;2.25;2.00;;;;;22.93;43.22;101745.13;5070142;27;51151;-57
2021/08/28 04:45:44;;;;;;;;;2.00;2.00;;;;;22.93;43.26;101747.06;5069342;28;51975;-55
2021/08/28 04:48:10;;;;;;;;;7.00;2.00;;;;;22.92;43.34;101746.19;5062936;28;51168;-55
2021/08/28 04:50:35;;;;;;;;;3.00;3.00;;;;;22.92;43.04;101748.94;5073725;28;51329;-55
2021/08/28 04:53:00;;;;;;;;;5.50;3.00;;;;;22.91;43.02;101747.25;5060147;28;51438;-57
2021/08/28 04:55:26;;;;;;;;;3.00;2.25;;;;;22.91;43.67;101738.09;5063291;28;58239;-56
2021/08/28 04:57:51;;;;;;;;;3.50;2.50;;;;;22.90;43.71;101742.78;5062244;28;51070;-57
2021/08/28 05:00:17;;;;;;;;;4.50;3.00;;;;;22.91;43.22;101749.16;5074373;28;51161;-55
2021/08/28 05:02:42;;;;;;;;;4.00;2.50;;;;;22.90;43.58;101753.00;5064919;27;55407;-55
2021/08/28 05:05:08;;;;;;;;;1.75;1.75;;;;;22.90;43.66;101753.00;5063603;28;57589;-57
2021/08/28 05:07:33;;;;;;;;;3.50;3.00;;;;;22.88;43.55;101753.22;5068379;28;50946;-56
2021/08/28 05:09:59;;;;;;;;;4.75;3.00;;;;;22.88;43.60;101755.13;5070181;28;52074;-55
2021/08/28 05:12:24;;;;;;;;;2.00;2.00;;;;;22.88;43.84;101760.66;5068835;28;51025;-57
2021/08/28 05:14:50;;;;;;;;;3.75;3.00;;;;;22.87;43.36;101767.25;5077429;28;50981;-57
2021/08/28 05:17:15;;;;;;;;;3.75;3.00;;;;;22.86;43.29;101755.34;5063953;28;51098;-57
2021/08/28 05:19:40;;;;;;;;;4.75;2.50;;;;;22.86;43.22;101760.03;5077030;28;51153;-56
2021/08/28 05:22:06;;;;;;;;;2.00;2.00;;;;;22.84;43.67;101763.00;5077666;28;51145;-56
2021/08/28 05:24:34;;;;;;;;;3.75;3.25;;;;;22.85;43.18;101753.66;5067797;28;51923;-56
2021/08/28 05:27:00;;;;;;;;;2.25;2.25;;;;;22.83;43.25;101758.53;5066131;28;51044;-53
2021/08/28 05:29:25;;;;;;;;;3.00;2.00;;;;;22.83;43.71;101761.28;5063719;27;51291;-55
2021/08/28 05:31:51;;;;;;;;;3.00;2.00;;;;;22.82;43.86;101765.09;5070328;28;51061;-56
2021/08/28 05:34:16;;;;;;;;;4.75;3.00;;;;;22.82;43.27;101758.72;5074719;28;51724;-56
2021/08/28 05:36:41;;;;;;;;;4.25;3.25;;;;;22.81;43.72;101763.38;5076218;28;51207;-53
2021/08/28 05:39:07;;;;;;;;;4.50;2.00;;;;;22.80;43.90;101767.22;5077162;28;51274;-56
2021/08/28 05:41:36;;;;;;;;;7.00;4.25;;;;;22.79;43.81;101760.00;5071531;28;51115;-55
2021/08/28 05:44:01;;;;;;;;;2.00;2.00;;;;;22.78;43.87;101763.81;5063809;28;51190;-54
2021/08/28 05:46:26;;;;;;;;;2.25;2.25;;;;;22.78;43.97;101766.59;5058504;28;51022;-54
2021/08/28 05:48:51;;;;;;;;;4.25;2.00;;;;;22.77;43.98;101762.13;5077737;27;51143;-55
2021/08/28 05:51:19;;;;;;;;;2.00;1.50;;;;;22.77;43.55;101762.13;5075550;27;51525;-55
2021/08/28 05:53:45;;;;;;;;;6.00;3.00;;;;;22.74;43.83;101757.06;5066998;27;52901;-54
2021/08/28 05:56:10;;;;;;;;;4.50;2.50;;;;;22.74;43.67;101762.56;5076514;27;51142;-57
2021/08/28 05:58:36;;;;;;;;;7.25;2.25;;;;;22.73;43.85;101761.72;5076185;28;51061;-57
2021/08/28 06:01:01;;;;;;;;;2.00;2.00;;;;;22.73;43.56;101761.72;5079288;27;50973;-57
2021/08/28 06:03:27;;;;;;;;;4.25;2.50;;;;;22.75;44.01;101767.03;5076537;28;51484;-56
2021/08/28 06:05:52;;;;;;;;;4.75;3.00;;;;;22.74;43.60;101770.84;5079703;27;51101;-57
2021/08/28 06:08:17;;;;;;;;;4.50;3.00;;;;;22.75;43.59;101770.63;5076679;28;51164;-58
2021/08/28 06:10:43;;;;;;;;;2.50;2.00;;;;;22.75;44.14;101767.88;5081637;27;51374;-55
2021/08/28 06:13:08;;;;;;;;;2.00;2.00;;;;;22.78;45.18;101766.59;5077238;27;52485;-56
2021/08/28 06:15:33;;;;;;;;;2.25;1.00;;;;;22.79;44.54;101762.75;5071765;27;51143;-58
2021/08/28 06:17:59;;;;;;;;;3.25;2.50;;;;;22.80;44.55;101761.69;5079370;27;51483;-57
2021/08/28 06:20:25;;;;;;;;;4.00;2.50;;;;;22.81;45.05;101768.06;5075210;28;51407;-57
2021/08/28 06:22:50;;;;;;;;;5.75;1.75;;;;;22.82;44.85;101770.59;5076582;28;51753;-60
2021/08/28 06:25:15;;;;;;;;;4.50;2.75;;;;;22.84;44.67;101768.53;5075302;28;51062;-57
2021/08/28 06:27:41;;;;;;;;;4.00;2.00;;;;;22.84;44.96;101774.06;5070043;28;51161;-59
2021/08/28 06:30:06;;;;;;;;;2.00;1.75;;;;;22.86;45.38;101771.94;5076008;28;50990;-61
2021/08/28 06:32:32;;;;;;;;;8.75;3.00;;;;;22.87;44.83;101772.78;5068422;27;51206;-59
2021/08/28 06:34:57;;;;;;;;;6.00;2.75;;;;;22.88;45.36;101769.78;5076896;28;51005;-59
2021/08/28 06:37:23;;;;;;;;;5.50;2.00;;;;;22.90;44.79;101777.84;5075213;28;51302;-59
2021/08/28 06:39:48;;;;;;;;;3.00;3.00;;;;;22.90;45.02;101775.94;5076678;28;51134;-59
2021/08/28 06:42:13;;;;;;;;;1.25;1.25;;;;;22.92;45.09;101779.31;5071773;28;51039;-59
2021/08/28 06:44:40;;;;;;;;;4.75;2.75;;;;;22.93;45.16;101771.91;5074911;28;50982;-59
2021/08/28 06:47:06;;;;;;;;;2.00;2.00;;;;;22.93;45.35;101778.28;5076081;28;51207;-59
2021/08/28 06:49:31;;;;;;;;;6.00;4.25;;;;;22.95;45.06;101780.84;5076780;28;51156;-59
2021/08/28 06:51:56;;;;;;;;;3.25;2.00;;;;;22.97;44.78;101779.53;5076018;28;54112;-60
2021/08/28 06:54:22;;;;;;;;;2.75;2.00;;;;;22.98;44.90;101774.88;5073675;28;51264;-60
2021/08/28 06:56:48;;;;;;;;;3.00;2.00;;;;;22.97;44.81;101782.31;5076476;28;51023;-55
2021/08/28 06:59:13;;;;;;;;;5.25;2.25;;;;;22.99;44.81;101777.41;5076421;28;51143;-59
2021/08/28 07:01:39;;;;;;;;;4.25;3.50;;;;;23.00;45.33;101786.53;5075168;28;51125;-59
2021/08/28 07:04:05;;;;;;;;;2.25;1.50;;;;;23.01;44.81;101780.78;5068515;28;51068;-60
2021/08/28 07:06:31;;;;;;;;;4.00;2.50;;;;;23.02;44.96;101779.72;5076380;28;51273;-58
2021/08/28 07:08:56;;;;;;;;;3.75;2.50;;;;;23.03;45.59;101789.75;5076444;28;51013;-59
2021/08/28 07:11:22;;;;;;;;;4.50;3.75;;;;;23.03;45.54;101781.47;5073167;28;50968;-59
2021/08/28 07:13:47;;;;;;;;;6.25;2.00;;;;;23.06;45.15;101780.16;5057856;28;51118;-56
2021/08/28 07:16:13;;;;;;;;;3.00;2.00;;;;;23.09;45.71;101787.16;5075795;28;53877;-59
2021/08/28 07:18:38;;;;;;;;;3.75;3.00;;;;;23.11;45.46;101780.34;5075608;28;51251;-57
2021/08/28 07:21:03;;;;;;;;;3.00;3.00;;;;;23.14;45.54;101776.31;5075572;28;51131;-57
2021/08/28 07:23:29;;;;;;;;;4.00;3.00;;;;;23.15;45.79;101787.16;5055434;28;51142;-56
2021/08/28 07:25:54;;;;;;;;;2.50;2.50;;;;;23.18;45.71;101781.19;5075968;28;51043;-57
2021/08/28 07:28:22;;;;;;;;;2.00;2.00;;;;;23.20;45.27;101787.34;5075869;28;51194;-57
2021/08/28 07:30:47;;;;;;;;;3.75;1.25;;;;;23.25;45.94;101798.59;5064242;28;52609;-58
2021/08/28 07:33:12;;;;;;;;;4.75;2.00;;;;;23.28;45.58;101786.25;5064483;28;51584;-55
2021/08/28 07:35:38;;;;;;;;;3.25;2.50;;;;;23.29;45.35;101793.47;5072859;28;51515;-57
2021/08/28 07:38:03;;;;;;;;;3.50;2.25;;;;;23.31;45.74;101794.09;5073433;27;51847;-58
2021/08/28 07:40:29;;;;;;;;;2.00;1.00;;;;;23.32;45.64;101795.78;5075997;27;51772;-57
2021/08/28 07:42:57;;;;;;;;;4.25;2.25;;;;;23.33;45.75;101789.19;5085565;27;51009;-59
2021/08/28 07:45:23;;;;;;;;;2.75;2.75;;;;;23.35;45.38;101784.31;5094004;27;51191;-60
2021/08/28 07:47:49;;;;;;;;;3.25;2.50;;;;;23.36;45.82;101790.69;5094853;27;51267;-57
2021/08/28 07:50:15;;;;;;;;;3.50;3.00;;;;;23.38;45.94;101791.31;5095543;27;51206;-58
2021/08/28 07:52:42;;;;;;;;;3.50;2.00;;;;;23.39;45.65;101780.03;5094392;27;51276;-59
2021/08/28 07:55:09;;;;;;;;;2.50;2.00;;;;;23.39;45.97;101793.00;5086800;27;51138;-56
2021/08/28 07:57:35;;;;;;;;;5.00;3.25;;;;;23.39;45.88;101790.25;5090987;27;51166;-57
2021/08/28 08:00:00;;;;;;;;;5.00;4.00;;;;;23.41;46.26;101796.41;5089887;27;51097;-60
2021/08/28 08:02:25;;;;;;;;;5.00;3.50;;;;;23.40;46.40;101790.03;5094735;27;51039;-58
2021/08/28 08:04:51;;;;;;;;;5.75;3.25;;;;;23.43;46.35;101789.56;5094853;27;51691;-56
2021/08/28 08:07:16;;;;;;;;;8.25;5.00;;;;;23.44;46.26;101782.97;5087726;27;50995;-56
2021/08/28 08:09:41;;;;;;;;;6.25;4.25;;;;;23.45;46.13;101784.69;5095081;27;51000;-55
2021/08/28 08:12:07;;;;;;;;;3.25;3.25;;;;;23.46;46.03;101789.16;5081791;27;51018;-55
2021/08/28 08:14:32;;;;;;;;;5.00;3.75;;;;;23.46;46.35;101794.69;5083350;27;51171;-54
2021/08/28 08:16:58;;;;;;;;;2.50;2.00;;;;;23.49;46.07;101798.94;5076844;27;51074;-57
2021/08/28 08:19:23;;;;;;;;;7.25;2.25;;;;;23.48;46.33;101800.00;5092775;27;51153;-57
2021/08/28 08:21:48;;;;;;;;;4.25;3.50;;;;;23.48;45.89;101806.38;5097138;27;51201;-56
2021/08/28 08:24:14;;;;;;;;;3.00;3.00;;;;;23.50;46.24;101814.44;5083673;27;51340;-57
2021/08/28 08:26:39;;;;;;;;;6.25;3.00;;;;;23.49;46.00;101805.31;5088760;27;51095;-56
2021/08/28 08:29:04;;;;;;;;;3.00;3.00;;;;;23.50;46.03;101804.22;5081182;27;52054;-54
2021/08/28 08:31:30;;;;;;;;;6.00;3.00;;;;;23.51;46.01;101794.88;5062350;28;52570;-55
2021/08/28 08:33:55;;;;;;;;;5.75;4.75;;;;;23.51;46.13;101783.81;5097319;27;51141;-55
2021/08/28 08:36:21;;;;;;;;;4.00;3.75;;;;;23.52;46.21;101790.19;5099431;27;51243;-56
2021/08/28 08:38:46;;;;;;;;;7.25;3.00;;;;;23.52;46.16;101791.03;5093354;27;51842;-56
2021/08/28 08:41:12;;;;;;;;;6.00;5.00;;;;;23.54;46.72;101788.03;5087986;27;51129;-55
2021/08/28 08:43:38;;;;;;;;;4.75;3.50;;;;;23.54;46.52;101791.66;5103441;27;51194;-56
2021/08/28 08:46:04;;;;;;;;;4.00;4.00;;;;;23.55;46.61;101793.38;5098540;27;51210;-56
2021/08/28 08:48:32;;;;;;;;;5.25;4.25;;;;;23.56;46.99;101795.06;5097881;27;51173;-55
2021/08/28 08:50:59;;;;;;;;;2.25;2.00;;;;;23.59;46.84;101800.19;5098074;27;51500;-57
2021/08/28 08:53:29;;;;;;;;;3.50;3.25;;;;;23.60;46.85;101799.13;5075804;27;51294;-55
2021/08/28 08:55:55;;;;;;;;;3.75;3.25;;;;;23.59;46.81;101800.19;5090639;27;51349;-56
2021/08/28 08:58:20;;;;;;;;;6.50;5.00;;;;;23.61;47.41;101803.56;5089924;27;52193;-58
2021/08/28 09:00:46;;;;;;;;;6.50;4.00;;;;;23.63;47.37;101805.28;5097287;27;51949;-58
2021/08/28 09:03:11;;;;;;;;;6.00;5.00;;;;;23.64;47.06;101801.44;5094255;27;51535;-58
2021/08/28 09:05:37;;;;;;;;;5.00;3.75;;;;;23.65;46.89;101797.59;5098142;27;50943;-58
2021/08/28 09:08:03;;;;;;;;;5.50;3.25;;;;;23.64;46.67;101802.28;5077276;28;51418;-58
2021/08/28 09:10:29;;;;;;;;;8.00;3.50;;;;;23.65;46.73;101803.13;5070753;27;51135;-57
2021/08/28 09:12:55;;;;;;;;;5.25;3.50;;;;;23.65;46.46;101805.88;5090730;27;51198;-58
2021/08/28 09:15:20;;;;;;;;;7.75;5.00;;;;;23.65;46.58;101805.88;5095884;27;51459;-57
2021/08/28 09:17:58;;;;;;;;;7.50;6.00;;;;;23.63;46.33;101805.28;5097657;27;51618;-58
2021/08/28 09:20:24;;;;;;;;;5.25;5.25;;;;;23.63;47.78;101811.66;5096650;27;51192;-56
2021/08/28 09:23:01;;;;;;;;;5.75;4.00;;;;;23.63;48.54;101808.03;5096243;27;51184;-58
2021/08/28 09:25:27;;;;;;;;;4.75;3.50;;;;;23.64;48.22;101801.44;5097614;27;51033;-56
2021/08/28 09:27:52;;;;;;;;;5.25;4.50;;;;;23.63;48.37;101806.13;5096186;27;52246;-58
2021/08/28 09:30:19;;;;;;;;;8.50;3.75;;;;;23.63;48.07;101814.41;5089257;27;51110;-57
2021/08/28 09:32:51;;;;;;;;;6.25;5.50;;;;;23.64;47.97;101807.81;5090513;27;51131;-56
2021/08/28 09:35:18;;;;;;;;;6.00;5.25;;;;;23.64;48.14;101813.34;5090434;27;51159;-56
2021/08/28 09:37:50;;;;;;;;;10.00;6.00;;;;;23.65;48.13;101812.25;5093036;27;51892;-57
2021/08/28 09:40:16;;;;;;;;;9.00;7.00;;;;;23.65;47.90;101815.03;5097271;27;51247;-56
2021/08/28 09:42:41;;;;;;;;;9.75;7.00;;;;;23.66;47.86;101810.38;5095926;27;51097;-57
2021/08/28 09:45:11;;;;;;;;;20.00;12.00;;;;;23.66;47.65;101815.91;5078664;27;51062;-57
2021/08/28 09:47:40;;;;;;;;;22.25;17.75;;;;;23.68;47.69;101819.31;5082326;27;51823;-57
2021/08/28 09:50:06;;;;;;;;;22.25;20.00;;;;;23.68;47.90;101813.78;5096608;27;51371;-57
2021/08/28 09:52:31;;;;;;;;;26.50;21.25;;;;;23.68;47.42;101808.22;5085478;27;51040;-58
2021/08/28 09:54:57;;;;;;;;;33.50;25.25;;;;;23.69;47.80;101809.94;5083366;27;50964;-57
2021/08/28 09:57:28;;;;;;;;;27.00;23.50;;;;;23.68;47.36;101803.56;5090902;27;52672;-57
2021/08/28 10:00:00;;;;;;;;;30.50;21.75;;;;;23.67;47.25;101812.06;5094719;27;51439;-57
2021/08/28 10:02:26;;;;;;;;;23.00;19.50;;;;;23.68;47.72;101811.84;5097121;27;51033;-57
2021/08/28 10:04:58;;;;;;;;;25.75;23.00;;;;;23.70;47.47;101811.63;5097026;27;51406;-57
2021/08/28 10:07:26;;;;;;;;;28.75;24.75;;;;;23.70;47.76;101806.94;5093869;27;51691;-56
2021/08/28 10:09:57;;;;;;;;;26.25;22.00;;;;;23.71;47.31;101808.63;5078146;27;51681;-57
2021/08/28 10:12:23;;;;;;;;;28.50;23.00;;;;;23.71;47.61;101808.63;5076925;27;51219;-57
2021/08/28 10:14:51;;;;;;;;;21.00;19.00;;;;;23.73;47.37;101805.63;5077128;27;51209;-57
2021/08/28 10:17:18;;;;;;;;;22.50;19.50;;;;;23.73;47.78;101789.03;5081724;27;51680;-56
2021/08/28 10:19:47;;;;;;;;;24.25;18.25;;;;;23.73;47.55;101795.41;5090902;27;51142;-58
2021/08/28 10:22:16;;;;;;;;;22.50;18.25;;;;;23.74;47.39;101794.34;5092981;27;51241;-56
2021/08/28 10:24:44;;;;;;;;;18.75;17.00;;;;;23.76;47.36;101794.13;5084928;27;51242;-57
2021/08/28 10:27:11;;;;;;;;;16.25;12.00;;;;;23.76;47.67;101796.88;5091045;27;51688;-58
2021/08/28 10:29:36;;;;;;;;;14.25;11.50;;;;;23.77;47.35;101790.31;5094274;27;51471;-56
2021/08/28 10:32:03;;;;;;;;;15.50;12.50;;;;;23.78;47.25;101792.84;5096258;27;50993;-57
2021/08/28 10:34:29;;;;;;;;;16.25;14.00;;;;;23.79;47.04;101794.53;5094084;27;51234;-57
2021/08/28 10:36:54;;;;;;;;;14.00;12.50;;;;;23.80;46.95;101806.47;5094800;27;51204;-57
2021/08/28 10:39:20;;;;;;;;;13.00;10.25;;;;;23.80;46.93;101801.78;5078552;27;51141;-58
2021/08/28 10:41:46;;;;;;;;;11.00;11.00;;;;;23.80;46.75;101804.53;5073700;28;51119;-57
2021/08/28 10:44:11;;;;;;;;;14.00;11.75;;;;;23.81;46.91;101797.94;5076001;27;51207;-57
2021/08/28 10:46:41;;;;;;;;;11.50;9.00;;;;;23.82;46.94;101796.00;5075662;27;51882;-57
2021/08/28 10:49:10;;;;;;;;;10.50;8.25;;;;;23.82;47.03;101794.09;5084693;27;51136;-56
2021/08/28 10:51:40;;;;;;;;;9.50;9.00;;;;;23.82;46.95;101794.09;5083694;27;51066;-56
2021/08/28 10:54:09;;;;;;;;;11.50;9.00;;;;;23.84;46.72;101791.09;5082093;27;51315;-55
2021/08/28 10:57:04;;;;;;;;;11.00;8.25;;;;;23.84;47.00;101788.34;5086862;27;52001;-55
2021/08/28 10:59:31;;;;;;;;;6.25;6.25;;;;;23.84;47.12;101791.94;5076830;27;51363;-58
2021/08/28 11:02:00;;;;;;;;;8.50;7.00;;;;;23.86;47.43;101792.59;5078217;27;51215;-56
2021/08/28 11:04:33;;;;;;;;;9.50;8.75;;;;;23.86;48.07;101784.31;5088499;27;51006;-57
2021/08/28 11:07:27;;;;;;;;;10.50;7.00;;;;;23.86;47.41;101781.53;5093323;27;51848;-55
2021/08/28 11:10:14;;;;;;;;;7.75;6.75;;;;;23.88;48.08;101784.06;5079869;27;51567;-60
2021/08/28 11:13:00;;;;;;;;;6.75;6.00;;;;;23.89;48.21;101791.28;5088480;27;51223;-57
2021/08/28 11:15:31;;;;;;;;;6.25;6.25;;;;;23.89;48.19;101778.31;5094140;27;51684;-59
2021/08/28 11:18:01;;;;;;;;;6.75;4.25;;;;;23.90;48.10;101785.53;5090621;27;51166;-58
2021/08/28 11:20:43;;;;;;;;;5.75;5.25;;;;;23.92;48.62;101782.53;5082651;27;51039;-58
2021/08/28 11:23:17;;;;;;;;;7.00;6.00;;;;;23.94;48.44;101779.53;5094428;27;51093;-57
2021/08/28 11:25:45;;;;;;;;;7.25;6.50;;;;;23.95;48.37;101786.78;5093701;27;51301;-56